sensor_id;sensor_type;location;lat;lon;timestamp;pressure;altitude;pressure_sealevel;temperature;humidity
28354;BME280;15603;50.878;8.036;2023-03-04T00:00:27;143539.69;;;1.15;100.00
28354;BME280;15603;50.878;8.036;2023-03-04T00:02:54;143533.66;;;1.13;100.00
28354;BME280;15603;50.878;8.036;2023-03-04T00:05:21;143545.75;;;1.18;100.00
28354;BME280;15603;50.878;8.036;2023-03-04T00:07:49;143538.50;;;1.15;100.00
28354;BME280;15603;50.878;8.036;2023-03-04T00:10:16;143569.88;;;1.28;100.00
28354;BME280;15603;50.878;8.036;2023-03-04T00:12:43;143577.13;;;1.31;100.00
28354;BME280;15603;50.878;8.036;2023-03-04T00:15:10;143581.97;;;1.33;100.00
28354;BME280;15603;50.878;8.036;2023-03-04T00:17:37;143572.31;;;1.29;100.00
28354;BME280;15603;50.878;8.036;2023-03-04T00:20:05;143569.88;;;1.28;100.00
28354;BME280;15603;50.878;8.036;2023-03-04T00:22:32;143560.22;;;1.24;100.00
28354;BME280;15603;50.878;8.036;2023-03-04T00:24:59;143587.97;;;1.36;100.00
28354;BME280;15603;50.878;8.036;2023-03-04T00:27:26;143590.41;;;1.37;100.00
28354;BME280;15603;50.878;8.036;2023-03-04T00:29:54;143596.44;;;1.40;100.00
28354;BME280;15603;50.878;8.036;2023-03-04T00:32:21;143594.00;;;1.38;100.00
28354;BME280;15603;50.878;8.036;2023-03-04T00:34:49;143585.59;;;1.35;100.00
28354;BME280;15603;50.878;8.036;2023-03-04T00:37:16;143591.63;;;1.37;100.00
28354;BME280;15603;50.878;8.036;2023-03-04T00:39:43;143594.00;;;1.38;100.00
28354;BME280;15603;50.878;8.036;2023-03-04T00:42:10;143606.09;;;1.44;100.00
28354;BME280;15603;50.878;8.036;2023-03-04T00:44:37;143551.75;;;1.21;100.00
28354;BME280;15603;50.878;8.036;2023-03-04T00:47:05;143586.78;;;1.35;100.00
28354;BME280;15603;50.878;8.036;2023-03-04T00:49:32;143619.38;;;1.49;100.00
28354;BME280;15603;50.878;8.036;2023-03-04T00:51:59;143613.34;;;1.47;100.00
28354;BME280;15603;50.878;8.036;2023-03-04T00:54:26;143623.00;;;1.51;100.00
28354;BME280;15603;50.878;8.036;2023-03-04T00:56:53;143620.56;;;1.50;100.00
28354;BME280;15603;50.878;8.036;2023-03-04T00:59:20;143630.22;;;1.54;100.00
28354;BME280;15603;50.878;8.036;2023-03-04T01:01:47;143642.31;;;1.59;100.00
28354;BME280;15603;50.878;8.036;2023-03-04T01:04:16;143658.03;;;1.66;100.00
28354;BME280;15603;50.878;8.036;2023-03-04T01:06:43;143658.03;;;1.66;100.00
28354;BME280;15603;50.878;8.036;2023-03-04T01:09:11;143661.63;;;1.67;100.00
28354;BME280;15603;50.878;8.036;2023-03-04T01:11:38;143660.41;;;1.67;100.00
28354;BME280;15603;50.878;8.036;2023-03-04T01:14:05;143585.59;;;1.35;100.00
28354;BME280;15603;50.878;8.036;2023-03-04T01:16:33;143668.88;;;1.70;100.00
28354;BME280;15603;50.878;8.036;2023-03-04T01:19:00;143664.03;;;1.68;100.00
28354;BME280;15603;50.878;8.036;2023-03-04T01:21:27;143677.34;;;1.74;100.00
28354;BME280;15603;50.878;8.036;2023-03-04T01:23:54;143707.53;;;1.87;100.00
28354;BME280;15603;50.878;8.036;2023-03-04T01:26:21;143661.63;;;1.67;100.00
28354;BME280;15603;50.878;8.036;2023-03-04T01:28:49;143705.09;;;1.86;100.00
28354;BME280;15603;50.878;8.036;2023-03-04T01:31:16;143734.06;;;1.98;100.00
28354;BME280;15603;50.878;8.036;2023-03-04T01:33:43;143720.78;;;1.92;100.00
28354;BME280;15603;50.878;8.036;2023-03-04T01:36:10;143720.78;;;1.92;100.00
28354;BME280;15603;50.878;8.036;2023-03-04T01:38:37;143718.38;;;1.91;100.00
28354;BME280;15603;50.878;8.036;2023-03-04T01:41:05;143709.94;;;1.88;100.00
28354;BME280;15603;50.878;8.036;2023-03-04T01:43:34;143731.69;;;1.97;100.00
28354;BME280;15603;50.878;8.036;2023-03-04T01:46:03;143724.41;;;1.94;100.00
28354;BME280;15603;50.878;8.036;2023-03-04T01:48:33;143738.91;;;2.00;100.00
28354;BME280;15603;50.878;8.036;2023-03-04T01:51:04;143697.84;;;1.83;100.00
28354;BME280;15603;50.878;8.036;2023-03-04T01:53:32;143731.69;;;1.97;100.00
28354;BME280;15603;50.878;8.036;2023-03-04T01:56:04;143734.06;;;1.98;100.00
28354;BME280;15603;50.878;8.036;2023-03-04T01:58:36;143750.97;;;2.05;100.00
28354;BME280;15603;50.878;8.036;2023-03-04T02:01:03;143706.28;;;1.86;100.00
28354;BME280;15603;50.878;8.036;2023-03-04T02:03:30;143750.97;;;2.05;100.00
28354;BME280;15603;50.878;8.036;2023-03-04T02:05:57;143723.22;;;1.93;100.00
28354;BME280;15603;50.878;8.036;2023-03-04T02:08:24;143747.34;;;2.04;100.00
28354;BME280;15603;50.878;8.036;2023-03-04T02:10:52;143746.16;;;2.03;100.00
28354;BME280;15603;50.878;8.036;2023-03-04T02:13:20;143666.44;;;1.69;100.00
28354;BME280;15603;50.878;8.036;2023-03-04T02:15:47;143741.34;;;2.01;100.00
28354;BME280;15603;50.878;8.036;2023-03-04T02:18:20;143746.16;;;2.03;100.00
28354;BME280;15603;50.878;8.036;2023-03-04T02:26:29;143714.75;;;1.90;100.00
28354;BME280;15603;50.878;8.036;2023-03-04T02:28:58;143753.44;;;2.06;100.00
28354;BME280;15603;50.878;8.036;2023-03-04T02:31:32;143750.97;;;2.05;100.00
28354;BME280;15603;50.878;8.036;2023-03-04T02:34:03;143763.09;;;2.10;100.00
28354;BME280;15603;50.878;8.036;2023-03-04T02:36:31;143767.91;;;2.12;100.00
28354;BME280;15603;50.878;8.036;2023-03-04T02:41:50;143782.41;;;2.19;100.00
28354;BME280;15603;50.878;8.036;2023-03-04T02:46:48;143790.84;;;2.22;100.00
28354;BME280;15603;50.878;8.036;2023-03-04T02:49:16;143795.69;;;2.24;100.00
28354;BME280;15603;50.878;8.036;2023-03-04T02:51:43;143876.63;;;2.59;100.00
28354;BME280;15603;50.878;8.036;2023-03-04T02:54:15;143823.47;;;2.36;100.00
28354;BME280;15603;50.878;8.036;2023-03-04T02:56:50;143817.44;;;2.33;98.85
28354;BME280;15603;50.878;8.036;2023-03-04T02:59:21;143917.72;;;2.76;97.60
28354;BME280;15603;50.878;8.036;2023-03-04T03:01:49;143864.53;;;2.53;98.01
28354;BME280;15603;50.878;8.036;2023-03-04T03:04:17;143920.13;;;2.77;96.59
28354;BME280;15603;50.878;8.036;2023-03-04T03:06:46;143854.88;;;2.49;96.37
28354;BME280;15603;50.878;8.036;2023-03-04T03:09:14;143916.53;;;2.75;96.72
28354;BME280;15603;50.878;8.036;2023-03-04T03:11:41;143906.84;;;2.71;96.76
28354;BME280;15603;50.878;8.036;2023-03-04T03:14:08;143941.88;;;2.86;95.20
28354;BME280;15603;50.878;8.036;2023-03-04T03:16:35;143945.50;;;2.88;95.11
28354;BME280;15603;50.878;8.036;2023-03-04T03:19:04;143929.81;;;2.81;96.69
28354;BME280;15603;50.878;8.036;2023-03-04T03:21:33;143850.03;;;2.47;96.20
28354;BME280;15603;50.878;8.036;2023-03-04T03:24:00;143926.19;;;2.80;96.74
28354;BME280;15603;50.878;8.036;2023-03-04T03:26:28;143928.56;;;2.81;97.31
28354;BME280;15603;50.878;8.036;2023-03-04T03:28:55;143937.03;;;2.84;96.58
28354;BME280;15603;50.878;8.036;2023-03-04T03:31:22;143914.09;;;2.74;96.20
28354;BME280;15603;50.878;8.036;2023-03-04T03:33:49;143922.56;;;2.78;96.68
28354;BME280;15603;50.878;8.036;2023-03-04T03:36:16;143944.31;;;2.87;96.12
28354;BME280;15603;50.878;8.036;2023-03-04T03:38:43;143956.38;;;2.92;95.79
28354;BME280;15603;50.878;8.036;2023-03-04T03:41:10;143944.31;;;2.87;95.53
28354;BME280;15603;50.878;8.036;2023-03-04T03:43:37;143920.13;;;2.77;96.94
28354;BME280;15603;50.878;8.036;2023-03-04T03:46:04;143915.28;;;2.75;98.05
28354;BME280;15603;50.878;8.036;2023-03-04T03:48:31;143956.38;;;2.92;96.72
28354;BME280;15603;50.878;8.036;2023-03-04T03:50:58;143967.28;;;2.97;95.27
28354;BME280;15603;50.878;8.036;2023-03-04T03:53:25;143949.13;;;2.89;97.04
28354;BME280;15603;50.878;8.036;2023-03-04T03:55:52;143975.75;;;3.01;95.13
28354;BME280;15603;50.878;8.036;2023-03-04T03:58:19;143958.81;;;2.93;95.92
28354;BME280;15603;50.878;8.036;2023-03-04T04:00:47;143979.38;;;3.02;96.48
28354;BME280;15603;50.878;8.036;2023-03-04T04:03:14;143956.38;;;2.92;96.00
28354;BME280;15603;50.878;8.036;2023-03-04T04:05:42;143859.72;;;2.51;95.49
28354;BME280;15603;50.878;8.036;2023-03-04T04:08:12;143964.84;;;2.96;96.58
28354;BME280;15603;50.878;8.036;2023-03-04T04:10:40;143955.16;;;2.92;96.62
28354;BME280;15603;50.878;8.036;2023-03-04T04:13:08;143975.75;;;3.01;95.49
28354;BME280;15603;50.878;8.036;2023-03-04T04:15:35;143956.38;;;2.92;96.38
28354;BME280;15603;50.878;8.036;2023-03-04T04:18:05;143961.25;;;2.94;95.92
28354;BME280;15603;50.878;8.036;2023-03-04T04:20:33;143953.97;;;2.91;96.91
28354;BME280;15603;50.878;8.036;2023-03-04T04:23:00;143968.47;;;2.98;96.35
28354;BME280;15603;50.878;8.036;2023-03-04T04:25:28;143980.56;;;3.03;96.28
28354;BME280;15603;50.878;8.036;2023-03-04T04:27:55;143978.13;;;3.02;96.25
28354;BME280;15603;50.878;8.036;2023-03-04T04:30:22;143978.13;;;3.02;96.01
28354;BME280;15603;50.878;8.036;2023-03-04T04:32:49;143963.63;;;2.95;95.71
28354;BME280;15603;50.878;8.036;2023-03-04T04:35:16;144026.50;;;3.22;95.52
28354;BME280;15603;50.878;8.036;2023-03-04T04:37:43;143993.88;;;3.08;95.56
28354;BME280;15603;50.878;8.036;2023-03-04T04:40:11;143995.06;;;3.09;95.15
28354;BME280;15603;50.878;8.036;2023-03-04T04:42:38;143953.97;;;2.91;95.67
28354;BME280;15603;50.878;8.036;2023-03-04T04:45:06;144021.66;;;3.20;94.72
28354;BME280;15603;50.878;8.036;2023-03-04T04:47:33;143885.09;;;2.62;95.49
28354;BME280;15603;50.878;8.036;2023-03-04T04:50:00;144019.22;;;3.19;94.48
28354;BME280;15603;50.878;8.036;2023-03-04T04:52:28;144001.09;;;3.11;95.86
28354;BME280;15603;50.878;8.036;2023-03-04T04:54:55;144004.72;;;3.13;95.57
28354;BME280;15603;50.878;8.036;2023-03-04T04:57:22;144021.66;;;3.20;94.36
28354;BME280;15603;50.878;8.036;2023-03-04T04:59:49;143960.00;;;2.94;94.63
28354;BME280;15603;50.878;8.036;2023-03-04T05:02:16;144016.84;;;3.18;95.49
28354;BME280;15603;50.878;8.036;2023-03-04T05:04:43;144002.34;;;3.12;95.28
28354;BME280;15603;50.878;8.036;2023-03-04T05:07:10;144002.34;;;3.12;95.46
28354;BME280;15603;50.878;8.036;2023-03-04T05:09:37;143989.03;;;3.06;96.92
28354;BME280;15603;50.878;8.036;2023-03-04T05:12:04;143996.25;;;3.09;95.57
28354;BME280;15603;50.878;8.036;2023-03-04T05:14:31;143970.91;;;2.99;96.67
28354;BME280;15603;50.878;8.036;2023-03-04T05:17:02;143985.41;;;3.05;95.67
28354;BME280;15603;50.878;8.036;2023-03-04T05:19:30;143970.91;;;2.99;95.65
28354;BME280;15603;50.878;8.036;2023-03-04T05:25:20;143879.03;;;2.60;95.75
28354;BME280;15603;50.878;8.036;2023-03-04T05:27:47;143960.00;;;2.94;96.04
28354;BME280;15603;50.878;8.036;2023-03-04T05:30:14;144013.19;;;3.17;94.61
28354;BME280;15603;50.878;8.036;2023-03-04T05:32:41;144008.38;;;3.14;96.21
28354;BME280;15603;50.878;8.036;2023-03-04T05:35:08;143920.13;;;2.77;96.29
28354;BME280;15603;50.878;8.036;2023-03-04T05:37:35;143993.88;;;3.08;96.08
28354;BME280;15603;50.878;8.036;2023-03-04T05:40:03;144004.72;;;3.13;96.77
28354;BME280;15603;50.878;8.036;2023-03-04T05:42:31;144014.41;;;3.17;96.09
28354;BME280;15603;50.878;8.036;2023-03-04T05:44:58;144010.75;;;3.15;95.97
28354;BME280;15603;50.878;8.036;2023-03-04T05:47:25;144026.50;;;3.22;95.04
28354;BME280;15603;50.878;8.036;2023-03-04T05:49:52;144005.94;;;3.13;96.17
28354;BME280;15603;50.878;8.036;2023-03-04T05:52:20;144044.63;;;3.30;95.05
28354;BME280;15603;50.878;8.036;2023-03-04T05:54:47;144019.22;;;3.19;94.85
28354;BME280;15603;50.878;8.036;2023-03-04T05:57:14;144020.47;;;3.20;95.81
28354;BME280;15603;50.878;8.036;2023-03-04T05:59:41;144033.78;;;3.25;94.62
28354;BME280;15603;50.878;8.036;2023-03-04T06:02:08;143999.91;;;3.11;95.84
28354;BME280;15603;50.878;8.036;2023-03-04T06:04:35;144033.78;;;3.25;95.14
28354;BME280;15603;50.878;8.036;2023-03-04T06:07:02;144041.00;;;3.28;94.17
28354;BME280;15603;50.878;8.036;2023-03-04T06:09:29;144055.50;;;3.34;94.20
28354;BME280;15603;50.878;8.036;2023-03-04T06:11:56;144031.34;;;3.24;95.03
28354;BME280;15603;50.878;8.036;2023-03-04T06:14:23;144024.06;;;3.21;95.03
28354;BME280;15603;50.878;8.036;2023-03-04T06:16:50;144038.59;;;3.27;94.72
28354;BME280;15603;50.878;8.036;2023-03-04T06:19:18;144031.34;;;3.24;95.63
28354;BME280;15603;50.878;8.036;2023-03-04T06:21:45;144045.81;;;3.30;95.47
28354;BME280;15603;50.878;8.036;2023-03-04T06:24:12;144042.19;;;3.29;94.13
28354;BME280;15603;50.878;8.036;2023-03-04T06:26:39;144062.78;;;3.38;93.66
28354;BME280;15603;50.878;8.036;2023-03-04T06:29:06;143966.06;;;2.97;94.18
28354;BME280;15603;50.878;8.036;2023-03-04T06:31:33;144048.28;;;3.31;93.87
28354;BME280;15603;50.878;8.036;2023-03-04T06:34:00;144031.34;;;3.24;95.26
28354;BME280;15603;50.878;8.036;2023-03-04T06:36:27;144067.59;;;3.40;94.26
28354;BME280;15603;50.878;8.036;2023-03-04T06:38:54;144053.09;;;3.33;95.17
28354;BME280;15603;50.878;8.036;2023-03-04T06:41:21;144072.44;;;3.42;93.89
28354;BME280;15603;50.878;8.036;2023-03-04T06:43:48;144077.28;;;3.44;94.78
28354;BME280;15603;50.878;8.036;2023-03-04T06:46:15;144089.38;;;3.49;94.37
28354;BME280;15603;50.878;8.036;2023-03-04T06:48:42;144026.50;;;3.22;93.67
28354;BME280;15603;50.878;8.036;2023-03-04T06:51:12;144099.03;;;3.53;93.90
28354;BME280;15603;50.878;8.036;2023-03-04T06:53:40;144111.16;;;3.58;93.65
28354;BME280;15603;50.878;8.036;2023-03-04T06:56:09;144074.88;;;3.43;93.33
28354;BME280;15603;50.878;8.036;2023-03-04T06:58:36;144077.28;;;3.44;93.63
28354;BME280;15603;50.878;8.036;2023-03-04T07:01:14;144094.22;;;3.51;93.99
28354;BME280;15603;50.878;8.036;2023-03-04T07:03:43;144077.28;;;3.44;95.25
28354;BME280;15603;50.878;8.036;2023-03-04T07:06:11;144070.03;;;3.41;95.36
28354;BME280;15603;50.878;8.036;2023-03-04T07:08:39;144099.03;;;3.53;94.40
28354;BME280;15603;50.878;8.036;2023-03-04T07:11:06;144124.44;;;3.64;93.48
28354;BME280;15603;50.878;8.036;2023-03-04T07:13:34;144108.72;;;3.57;94.74
28354;BME280;15603;50.878;8.036;2023-03-04T07:16:08;144106.31;;;3.56;94.96
28354;BME280;15603;50.878;8.036;2023-03-04T07:18:36;144113.53;;;3.59;93.97
28354;BME280;15603;50.878;8.036;2023-03-04T07:21:05;144070.03;;;3.41;94.90
28354;BME280;15603;50.878;8.036;2023-03-04T07:23:33;144105.06;;;3.56;94.43
28354;BME280;15603;50.878;8.036;2023-03-04T07:26:02;144107.50;;;3.57;94.53
28354;BME280;15603;50.878;8.036;2023-03-04T07:28:29;144070.03;;;3.41;94.17
28354;BME280;15603;50.878;8.036;2023-03-04T07:30:56;144140.16;;;3.70;93.93
28354;BME280;15603;50.878;8.036;2023-03-04T07:33:23;144161.94;;;3.80;92.89
28354;BME280;15603;50.878;8.036;2023-03-04T07:35:58;144169.16;;;3.83;92.82
28354;BME280;15603;50.878;8.036;2023-03-04T07:38:25;144165.56;;;3.81;93.99
28354;BME280;15603;50.878;8.036;2023-03-04T07:40:56;144176.44;;;3.86;93.32
28354;BME280;15603;50.878;8.036;2023-03-04T07:43:24;144176.44;;;3.86;93.23
28354;BME280;15603;50.878;8.036;2023-03-04T07:45:51;144187.31;;;3.90;92.81
28354;BME280;15603;50.878;8.036;2023-03-04T07:48:18;144184.91;;;3.89;91.76
28354;BME280;15603;50.878;8.036;2023-03-04T07:50:45;144077.28;;;3.44;93.05
28354;BME280;15603;50.878;8.036;2023-03-04T07:53:12;144175.25;;;3.85;92.79
28354;BME280;15603;50.878;8.036;2023-03-04T07:55:39;144164.31;;;3.81;92.03
28354;BME280;15603;50.878;8.036;2023-03-04T07:58:06;144183.72;;;3.89;92.71
28354;BME280;15603;50.878;8.036;2023-03-04T08:00:33;144193.38;;;3.93;92.13
28354;BME280;15603;50.878;8.036;2023-03-04T08:03:00;144171.59;;;3.84;93.69
28354;BME280;15603;50.878;8.036;2023-03-04T08:05:27;144212.72;;;4.01;92.76
28354;BME280;15603;50.878;8.036;2023-03-04T08:07:54;144210.28;;;4.00;93.21
28354;BME280;15603;50.878;8.036;2023-03-04T08:10:23;144227.22;;;4.07;92.88
28354;BME280;15603;50.878;8.036;2023-03-04T08:12:50;144236.91;;;4.11;93.01
28354;BME280;15603;50.878;8.036;2023-03-04T08:15:17;144212.72;;;4.01;91.80
28354;BME280;15603;50.878;8.036;2023-03-04T08:17:44;144143.78;;;3.72;92.57
28354;BME280;15603;50.878;8.036;2023-03-04T08:20:11;144223.59;;;4.06;91.85
28354;BME280;15603;50.878;8.036;2023-03-04T08:22:39;144224.84;;;4.06;92.32
28354;BME280;15603;50.878;8.036;2023-03-04T08:25:06;144288.94;;;4.33;91.22
28354;BME280;15603;50.878;8.036;2023-03-04T08:27:33;144279.28;;;4.29;90.71
28354;BME280;15603;50.878;8.036;2023-03-04T08:30:00;144336.13;;;4.53;90.19
28354;BME280;15603;50.878;8.036;2023-03-04T08:32:27;144331.28;;;4.51;91.24
28354;BME280;15603;50.878;8.036;2023-03-04T08:34:55;144285.31;;;4.32;90.03
28354;BME280;15603;50.878;8.036;2023-03-04T08:37:22;144351.88;;;4.60;88.81
28354;BME280;15603;50.878;8.036;2023-03-04T08:39:49;144317.97;;;4.46;90.47
28354;BME280;15603;50.878;8.036;2023-03-04T08:42:16;144345.78;;;4.58;90.12
28354;BME280;15603;50.878;8.036;2023-03-04T08:44:43;144303.47;;;4.40;90.97
28354;BME280;15603;50.878;8.036;2023-03-04T08:47:11;144327.66;;;4.50;91.07
28354;BME280;15603;50.878;8.036;2023-03-04T08:49:38;144340.97;;;4.56;89.97
28354;BME280;15603;50.878;8.036;2023-03-04T08:52:05;144326.44;;;4.49;90.93
28354;BME280;15603;50.878;8.036;2023-03-04T08:54:32;144367.59;;;4.67;89.11
28354;BME280;15603;50.878;8.036;2023-03-04T08:56:59;144385.75;;;4.75;88.34
28354;BME280;15603;50.878;8.036;2023-03-04T08:59:26;144362.75;;;4.65;89.49
28354;BME280;15603;50.878;8.036;2023-03-04T09:01:53;144348.25;;;4.59;89.63
28354;BME280;15603;50.878;8.036;2023-03-04T09:04:20;144377.25;;;4.71;89.16
28354;BME280;15603;50.878;8.036;2023-03-04T09:06:50;144367.59;;;4.67;89.72
28354;BME280;15603;50.878;8.036;2023-03-04T09:09:19;144361.56;;;4.64;89.73
28354;BME280;15603;50.878;8.036;2023-03-04T09:11:46;144357.91;;;4.63;89.64
28354;BME280;15603;50.878;8.036;2023-03-04T09:14:14;144396.66;;;4.79;89.24
28354;BME280;15603;50.878;8.036;2023-03-04T09:16:41;144391.78;;;4.77;87.21
28354;BME280;15603;50.878;8.036;2023-03-04T09:19:08;144367.59;;;4.67;87.52
28354;BME280;15603;50.878;8.036;2023-03-04T09:21:35;144377.25;;;4.71;88.38
28354;BME280;15603;50.878;8.036;2023-03-04T09:24:02;144309.50;;;4.42;89.14
28354;BME280;15603;50.878;8.036;2023-03-04T09:26:29;144400.25;;;4.81;89.08
28354;BME280;15603;50.878;8.036;2023-03-04T09:28:58;144440.22;;;4.98;87.23
28354;BME280;15603;50.878;8.036;2023-03-04T09:31:27;144384.53;;;4.74;88.49
28354;BME280;15603;50.878;8.036;2023-03-04T09:33:56;144466.84;;;5.09;87.25
28354;BME280;15603;50.878;8.036;2023-03-04T09:36:23;144524.97;;;5.34;86.99
28354;BME280;15603;50.878;8.036;2023-03-04T09:38:50;144562.50;;;5.49;86.19
28354;BME280;15603;50.878;8.036;2023-03-04T09:41:21;144566.13;;;5.51;84.51
28354;BME280;15603;50.878;8.036;2023-03-04T09:43:51;144597.63;;;5.64;85.53
28354;BME280;15603;50.878;8.036;2023-03-04T09:46:35;144642.44;;;5.83;83.62
28354;BME280;15603;50.878;8.036;2023-03-04T09:49:04;144636.38;;;5.81;84.33
28354;BME280;15603;50.878;8.036;2023-03-04T10:00:24;144694.56;;;6.05;82.72
28354;BME280;15603;50.878;8.036;2023-03-04T10:03:17;144753.94;;;6.31;81.03
28354;BME280;15603;50.878;8.036;2023-03-04T10:11:23;144804.81;;;6.52;79.51
28354;BME280;15603;50.878;8.036;2023-03-04T10:13:56;144776.94;;;6.40;80.45
28354;BME280;15603;50.878;8.036;2023-03-04T10:16:32;144809.66;;;6.54;78.36
28354;BME280;15603;50.878;8.036;2023-03-04T10:19:23;144832.69;;;6.64;78.18
28354;BME280;15603;50.878;8.036;2023-03-04T10:21:58;144818.16;;;6.58;78.67
28354;BME280;15603;50.878;8.036;2023-03-04T10:24:28;144867.84;;;6.79;76.98
28354;BME280;15603;50.878;8.036;2023-03-04T10:27:00;144895.72;;;6.91;76.98
28354;BME280;15603;50.878;8.036;2023-03-04T10:29:30;144906.66;;;6.95;76.27
28354;BME280;15603;50.878;8.036;2023-03-04T10:31:58;144843.63;;;6.68;78.39
28354;BME280;15603;50.878;8.036;2023-03-04T10:34:25;144958.78;;;7.17;77.83
28354;BME280;15603;50.878;8.036;2023-03-04T10:36:59;144979.41;;;7.26;76.91
28354;BME280;15603;50.878;8.036;2023-03-04T10:39:30;145019.44;;;7.43;76.21
28354;BME280;15603;50.878;8.036;2023-03-04T10:42:03;145064.28;;;7.62;74.53
28354;BME280;15603;50.878;8.036;2023-03-04T10:44:33;145057.03;;;7.59;74.55
28354;BME280;15603;50.878;8.036;2023-03-04T10:47:00;145008.50;;;7.38;75.94
28354;BME280;15603;50.878;8.036;2023-03-04T10:49:28;145041.22;;;7.52;75.43
28354;BME280;15603;50.878;8.036;2023-03-04T10:52:18;145050.94;;;7.56;75.19
28354;BME280;15603;50.878;8.036;2023-03-04T10:54:52;145036.38;;;7.50;75.56
28354;BME280;15603;50.878;8.036;2023-03-04T10:57:25;145007.28;;;7.38;76.28
28354;BME280;15603;50.878;8.036;2023-03-04T11:00:00;144985.47;;;7.28;77.70
28354;BME280;15603;50.878;8.036;2023-03-04T11:05:22;144968.47;;;7.21;77.30
28354;BME280;15603;50.878;8.036;2023-03-04T11:07:59;145009.69;;;7.39;77.65
28354;BME280;15603;50.878;8.036;2023-03-04T11:10:38;145021.84;;;7.44;77.84
28354;BME280;15603;50.878;8.036;2023-03-04T11:18:19;144949.09;;;7.13;78.40
28354;BME280;15603;50.878;8.036;2023-03-04T11:20:50;144983.06;;;7.27;79.35
28354;BME280;15603;50.878;8.036;2023-03-04T11:23:34;144907.88;;;6.96;79.84
28354;BME280;15603;50.878;8.036;2023-03-04T11:26:10;144911.50;;;6.97;80.39
28354;BME280;15603;50.878;8.036;2023-03-04T11:28:51;144923.59;;;7.02;81.24
28354;BME280;15603;50.878;8.036;2023-03-04T11:31:23;144964.88;;;7.20;80.24
28354;BME280;15603;50.878;8.036;2023-03-04T11:34:00;144951.53;;;7.14;80.28
28354;BME280;15603;50.878;8.036;2023-03-04T11:36:58;144962.44;;;7.19;80.18
28354;BME280;15603;50.878;8.036;2023-03-04T11:39:45;144918.75;;;7.00;81.50
28354;BME280;15603;50.878;8.036;2023-03-04T11:42:35;144932.09;;;7.06;82.12
28354;BME280;15603;50.878;8.036;2023-03-04T11:45:18;144934.53;;;7.07;82.87
28354;BME280;15603;50.878;8.036;2023-03-04T11:48:11;144886.03;;;6.86;82.36
28354;BME280;15603;50.878;8.036;2023-03-04T11:50:50;144917.56;;;7.00;82.53
28354;BME280;15603;50.878;8.036;2023-03-04T11:56:05;144866.66;;;6.78;84.10
28354;BME280;15603;50.878;8.036;2023-03-04T11:58:56;144876.34;;;6.82;84.04
28354;BME280;15603;50.878;8.036;2023-03-04T12:01:40;144808.47;;;6.54;84.07
28354;BME280;15603;50.878;8.036;2023-03-04T12:21:06;144904.22;;;6.94;84.02
28354;BME280;15603;50.878;8.036;2023-03-04T12:32:26;144808.47;;;6.54;87.44
28354;BME280;15603;50.878;8.036;2023-03-04T12:35:22;144757.56;;;6.32;87.73
28354;BME280;15603;50.878;8.036;2023-03-04T12:38:06;144750.28;;;6.29;88.13
28354;BME280;15603;50.878;8.036;2023-03-04T12:46:25;144808.47;;;6.54;88.76
28354;BME280;15603;50.878;8.036;2023-03-04T12:52:00;144798.78;;;6.49;88.64
28354;BME280;15603;50.878;8.036;2023-03-04T12:54:33;144818.16;;;6.58;88.22
28354;BME280;15603;50.878;8.036;2023-03-04T12:57:10;144833.94;;;6.64;87.84
28354;BME280;15603;50.878;8.036;2023-03-04T13:02:31;144816.97;;;6.57;88.49
28354;BME280;15603;50.878;8.036;2023-03-04T13:10:49;144791.47;;;6.46;91.01
28354;BME280;15603;50.878;8.036;2023-03-04T13:13:38;144802.41;;;6.51;90.61
28354;BME280;15603;50.878;8.036;2023-03-04T13:16:29;144837.56;;;6.66;90.68
28354;BME280;15603;50.878;8.036;2023-03-04T13:18:58;144836.34;;;6.65;91.73
28354;BME280;15603;50.878;8.036;2023-03-04T13:21:28;144860.59;;;6.76;91.15
28354;BME280;15603;50.878;8.036;2023-03-04T13:24:00;144878.78;;;6.83;91.10
28354;BME280;15603;50.878;8.036;2023-03-04T13:26:47;144910.31;;;6.97;90.27
28354;BME280;15603;50.878;8.036;2023-03-04T13:34:50;144946.69;;;7.12;88.91
28354;BME280;15603;50.878;8.036;2023-03-04T13:40:22;144996.34;;;7.33;88.18
28354;BME280;15603;50.878;8.036;2023-03-04T13:42:54;144898.16;;;6.92;88.63
28354;BME280;15603;50.878;8.036;2023-03-04T13:45:35;144917.56;;;7.00;89.96
28354;BME280;15603;50.878;8.036;2023-03-04T13:48:07;144944.22;;;7.11;90.00
28354;BME280;15603;50.878;8.036;2023-03-04T13:50:48;144929.69;;;7.05;90.70
28354;BME280;15603;50.878;8.036;2023-03-04T13:58:36;144978.16;;;7.25;89.35
28354;BME280;15603;50.878;8.036;2023-03-04T14:01:04;144940.59;;;7.10;89.24
28354;BME280;15603;50.878;8.036;2023-03-04T14:03:33;144905.41;;;6.95;89.66
28354;BME280;15603;50.878;8.036;2023-03-04T14:06:29;144876.34;;;6.82;90.36
28354;BME280;15603;50.878;8.036;2023-03-04T14:08:55;144852.13;;;6.72;91.86
28354;BME280;15603;50.878;8.036;2023-03-04T14:11:31;144855.75;;;6.74;92.57
28354;BME280;15603;50.878;8.036;2023-03-04T14:14:03;144910.31;;;6.97;91.77
28354;BME280;15603;50.878;8.036;2023-03-04T14:16:37;144922.41;;;7.02;91.30
28354;BME280;15603;50.878;8.036;2023-03-04T14:19:11;144911.50;;;6.97;92.21
28354;BME280;15603;50.878;8.036;2023-03-04T14:21:43;144938.19;;;7.08;91.45
28354;BME280;15603;50.878;8.036;2023-03-04T14:24:14;144972.13;;;7.23;91.95
28354;BME280;15603;50.878;8.036;2023-03-04T14:26:42;144985.47;;;7.28;91.62
28354;BME280;15603;50.878;8.036;2023-03-04T14:29:26;145002.44;;;7.36;90.60
28354;BME280;15603;50.878;8.036;2023-03-04T14:31:54;144966.06;;;7.20;91.52
28354;BME280;15603;50.878;8.036;2023-03-04T14:34:29;144976.97;;;7.25;91.32
28354;BME280;15603;50.878;8.036;2023-03-04T14:36:58;144950.28;;;7.14;90.99
28354;BME280;15603;50.878;8.036;2023-03-04T14:39:29;144933.34;;;7.06;92.37
28354;BME280;15603;50.878;8.036;2023-03-04T14:42:00;144923.59;;;7.02;92.40
28354;BME280;15603;50.878;8.036;2023-03-04T14:44:31;144883.63;;;6.85;93.75
28354;BME280;15603;50.878;8.036;2023-03-04T14:49:52;144852.13;;;6.72;94.59